createdAt,value
2019-04-11T00:02:06.733Z,100504.38
2019-04-11T00:04:38.618Z,100506.20
2019-04-11T00:07:10.718Z,100504.05
2019-04-11T00:09:42.883Z,100507.08
2019-04-11T00:12:14.738Z,100495.44
2019-04-11T00:14:46.883Z,100504.17
2019-04-11T00:17:19.590Z,100507.93
2019-04-11T00:19:51.609Z,100510.28
2019-04-11T00:22:24.186Z,100508.13
2019-04-11T00:24:55.924Z,100511.46
2019-04-11T00:27:28.933Z,100511.66
2019-04-11T00:30:01.626Z,100513.89
2019-04-11T00:32:34.188Z,100514.16
2019-04-11T00:35:07.173Z,100511.70
2019-04-11T00:37:39.188Z,100514.20
2019-04-11T00:40:11.123Z,100509.59
2019-04-11T00:42:43.025Z,100514.11
2019-04-11T00:45:15.804Z,100508.05
2019-04-11T00:47:47.682Z,100504.20
2019-04-11T00:50:19.437Z,100511.02
2019-04-11T00:52:51.660Z,100507.78
2019-04-11T00:55:23.859Z,100502.50
2019-04-11T00:57:55.681Z,100503.25
2019-04-11T01:00:29.184Z,100506.95
2019-04-11T01:03:03.813Z,100505.50
2019-04-11T01:05:37.118Z,100505.28
2019-04-11T01:08:09.550Z,100501.69
2019-04-11T01:10:43.607Z,100498.54
2019-04-11T01:13:17.492Z,100500.83
2019-04-11T01:16:01.116Z,100503.57
2019-04-11T01:18:33.961Z,100503.45
2019-04-11T01:21:06.221Z,100505.06
2019-04-11T01:23:38.122Z,100509.45
2019-04-11T01:26:10.922Z,100507.41
2019-04-11T01:28:42.886Z,100502.13
2019-04-11T01:31:17.719Z,100497.76
2019-04-11T01:33:49.845Z,100493.48
2019-04-11T01:36:22.670Z,100496.62
2019-04-11T01:38:57.087Z,100494.63
2019-04-11T01:41:28.874Z,100494.17
2019-04-11T01:44:04.149Z,100493.55
2019-04-11T01:46:34.308Z,100497.52
2019-04-11T01:49:17.069Z,100493.42
2019-04-11T01:51:49.759Z,100492.02
2019-04-11T01:54:22.053Z,100491.35
2019-04-11T01:56:55.795Z,100490.39
2019-04-11T01:59:29.071Z,100487.22
2019-04-11T02:02:23.947Z,100475.19
2019-04-11T02:05:08.464Z,100483.94
2019-04-11T02:07:40.708Z,100480.52
2019-04-11T02:10:12.854Z,100481.02
2019-04-11T02:12:45.608Z,100482.38
2019-04-11T02:15:17.827Z,100482.89
2019-04-11T02:17:52.388Z,100485.73
2019-04-11T02:20:24.938Z,100490.27
2019-04-11T02:23:04.657Z,100486.12
2019-04-11T02:25:54.518Z,100483.08
2019-04-11T02:28:26.600Z,100483.02
2019-04-11T02:31:00.104Z,100490.48
2019-04-11T02:33:32.948Z,100483.75
2019-04-11T02:36:07.912Z,100484.78
2019-04-11T02:38:41.305Z,100486.96
2019-04-11T02:41:14.185Z,100485.23
2019-04-11T02:43:46.803Z,100483.72
2019-04-11T02:46:28.333Z,100493.80
2019-04-11T02:48:54.323Z,100494.53
2019-04-11T02:51:27.023Z,100492.89
2019-04-11T02:53:59.296Z,100494.11
2019-04-11T02:56:31.350Z,100492.20
2019-04-11T02:59:05.376Z,100495.44
2019-04-11T03:01:37.514Z,100496.61
2019-04-11T03:04:10.475Z,100504.38
2019-04-11T03:06:43.874Z,100505.95
2019-04-11T03:09:17.794Z,100507.23
2019-04-11T03:11:51.482Z,100507.42
2019-04-11T03:14:23.353Z,100506.96
2019-04-11T03:17:02.429Z,100503.30
2019-04-11T03:19:42.269Z,100497.40
2019-04-11T03:22:03.313Z,100502.81
2019-04-11T03:24:36.014Z,100500.41
2019-04-11T03:27:10.076Z,100499.84
2019-04-11T03:29:43.103Z,100498.16
2019-04-11T03:33:11.307Z,100499.89
2019-04-11T03:35:34.819Z,100500.67
2019-04-11T03:37:51.816Z,100509.66
2019-04-11T03:40:19.023Z,100499.27
2019-04-11T03:42:44.848Z,100509.27
2019-04-11T03:45:25.881Z,100497.60
2019-04-11T03:47:52.526Z,100503.64
2019-04-11T03:50:16.503Z,100505.09
2019-04-11T03:52:45.187Z,100504.87
2019-04-11T03:55:17.091Z,100507.38
2019-04-11T03:57:49.248Z,100505.09
2019-04-11T04:00:24.738Z,100503.78
2019-04-11T04:02:57.426Z,100503.55
2019-04-11T04:05:32.224Z,100502.41
2019-04-11T04:08:04.522Z,100498.19
2019-04-11T04:10:39.592Z,100503.52
2019-04-11T04:13:16.229Z,100501.68
2019-04-11T04:16:03.957Z,100505.48
2019-04-11T04:19:05.304Z,100498.27
2019-04-11T04:21:47.025Z,100494.23
2019-04-11T04:24:37.884Z,100496.08
2019-04-11T04:27:09.032Z,100492.06
2019-04-11T04:29:41.304Z,100490.59
2019-04-11T04:32:14.196Z,100496.48
2019-04-11T04:34:48.118Z,100494.16
2019-04-11T04:37:21.431Z,100491.84
2019-04-11T04:40:13.567Z,100498.92
2019-04-11T04:42:33.326Z,100492.98
2019-04-11T04:45:02.852Z,100496.52
2019-04-11T04:47:42.662Z,100496.12
2019-04-11T04:50:11.058Z,100496.52
2019-04-11T04:52:43.011Z,100497.02
2019-04-11T04:55:14.754Z,100495.97
2019-04-11T04:57:46.538Z,100490.81
2019-04-11T05:00:18.810Z,100491.37
2019-04-11T05:02:52.268Z,100492.77
2019-04-11T05:05:24.487Z,100486.84
2019-04-11T05:08:00.403Z,100488.39
2019-04-11T05:10:32.769Z,100483.94
2019-04-11T05:13:05.837Z,100488.36
2019-04-11T05:15:38.687Z,100488.16
2019-04-11T05:18:11.398Z,100492.30
2019-04-11T05:20:44.307Z,100494.09
2019-04-11T05:23:16.985Z,100494.38
2019-04-11T05:25:48.804Z,100497.48
2019-04-11T05:28:21.437Z,100501.14
2019-04-11T05:30:53.553Z,100501.75
2019-04-11T05:33:25.401Z,100499.40
2019-04-11T05:35:58.592Z,100507.09
2019-04-11T05:38:30.708Z,100512.50
2019-04-11T05:41:02.438Z,100513.19
2019-04-11T05:43:37.299Z,100515.66
2019-04-11T05:46:25.115Z,100510.77
2019-04-11T05:49:03.864Z,100516.98
2019-04-11T05:51:39.954Z,100516.86
2019-04-11T05:54:10.704Z,100520.80
2019-04-11T05:56:43.717Z,100512.41
2019-04-11T05:59:21.489Z,100521.09
2019-04-11T06:02:02.652Z,100525.27
2019-04-11T06:04:50.062Z,100526.30
2019-04-11T06:07:46.962Z,100529.19
2019-04-11T06:10:20.252Z,100530.67
2019-04-11T06:13:10.213Z,100534.30
2019-04-11T06:15:44.447Z,100541.96
2019-04-11T06:18:37.743Z,100543.06
2019-04-11T06:21:14.283Z,100548.56
2019-04-11T06:24:03.592Z,100552.20
2019-04-11T06:27:02.526Z,100554.45
2019-04-11T06:29:39.641Z,100558.52
2019-04-11T06:32:29.700Z,100557.00
2019-04-11T06:35:06.699Z,100553.86
2019-04-11T06:37:59.096Z,100554.28
2019-04-11T06:40:36.684Z,100556.79
2019-04-11T06:43:30.368Z,100567.64
2019-04-11T06:46:36.525Z,100570.62
2019-04-11T06:49:14.595Z,100566.69
2019-04-11T06:51:50.444Z,100568.83
2019-04-11T06:54:28.629Z,100574.94
2019-04-11T06:57:01.752Z,100580.44
2019-04-11T06:59:37.132Z,100580.44
2019-04-11T07:02:18.065Z,100583.58
2019-04-11T07:04:54.805Z,100585.31
2019-04-11T07:07:29.476Z,100586.34
2019-04-11T07:10:04.070Z,100589.84
2019-04-11T07:12:59.319Z,100582.95
2019-04-11T07:15:37.972Z,100578.41
2019-04-11T07:18:27.163Z,100588.11
2019-04-11T07:21:08.493Z,100586.92
2019-04-11T07:23:57.928Z,100597.78
2019-04-11T07:26:38.388Z,100599.71
2019-04-11T07:29:33.724Z,100604.11
2019-04-11T07:32:09.439Z,100602.56
2019-04-11T07:34:59.998Z,100591.66
2019-04-11T07:37:53.179Z,100594.08
2019-04-11T07:40:43.044Z,100596.48
2019-04-11T07:43:35.435Z,100600.34
2019-04-11T07:46:27.372Z,100596.33
2019-04-11T07:49:04.110Z,100599.42
2019-04-11T07:51:46.302Z,100591.57
2019-04-11T07:54:20.395Z,100591.19
2019-04-11T07:57:03.868Z,100599.47
2019-04-11T07:59:55.686Z,100596.13
2019-04-11T08:02:45.645Z,100595.92
2019-04-11T08:05:37.401Z,100592.33
2019-04-11T08:08:37.100Z,100604.30
2019-04-11T08:11:16.138Z,100602.00
2019-04-11T08:14:12.669Z,100605.16
2019-04-11T08:16:59.523Z,100595.43
2019-04-11T08:19:51.272Z,100598.00
2019-04-11T08:22:37.462Z,100593.70
2019-04-11T08:25:27.138Z,100599.24
2019-04-11T08:28:05.874Z,100602.30
2019-04-11T08:30:50.996Z,100598.75
2019-04-11T08:33:24.717Z,100596.78
2019-04-11T08:36:22.008Z,100603.73
2019-04-11T08:38:54.370Z,100598.45
2019-04-11T08:41:59.016Z,100596.04
2019-04-11T08:44:34.320Z,100599.97
2019-04-11T08:47:09.917Z,100602.64
2019-04-11T08:49:48.083Z,100607.58
2019-04-11T08:52:31.921Z,100605.22
2019-04-11T08:55:10.903Z,100610.92
2019-04-11T08:57:45.400Z,100614.91
2019-04-11T09:00:40.368Z,100612.39
2019-04-11T09:03:56.554Z,100617.85
2019-04-11T09:06:23.373Z,100609.13
2019-04-11T09:09:13.247Z,100618.46
2019-04-11T09:11:58.230Z,100620.39
2019-04-11T09:14:48.977Z,100618.41
2019-04-11T09:17:28.215Z,100621.02
2019-04-11T09:20:19.086Z,100622.12
2019-04-11T09:22:53.425Z,100623.20
2019-04-11T09:25:43.492Z,100625.17
2019-04-11T09:28:17.549Z,100629.00
2019-04-11T09:31:09.319Z,100624.81
2019-04-11T09:34:17.608Z,100619.30
2019-04-11T09:36:58.121Z,100621.65
2019-04-11T09:39:48.674Z,100626.80
2019-04-11T09:42:40.883Z,100622.41
2019-04-11T09:45:35.191Z,100623.03
2019-04-11T09:48:33.531Z,100625.48
2019-04-11T09:51:40.094Z,100625.80
2019-04-11T09:54:32.433Z,100623.57
2019-04-11T09:57:26.799Z,100626.84
2019-04-11T10:00:26.976Z,100630.02
2019-04-11T10:03:06.635Z,100629.13
2019-04-11T10:06:00.428Z,100631.70
2019-04-11T10:08:43.670Z,100626.17
2019-04-11T10:11:34.486Z,100625.86
2019-04-11T10:14:09.376Z,100621.95
2019-04-11T10:17:00.155Z,100625.18
2019-04-11T10:19:52.012Z,100621.89
2019-04-11T10:22:49.140Z,100616.94
2019-04-11T10:25:32.570Z,100610.25
2019-04-11T10:28:29.883Z,100613.05
2019-04-11T10:31:10.647Z,100604.27
2019-04-11T10:34:01.430Z,100600.13
2019-04-11T10:36:55.864Z,100599.20
2019-04-11T10:39:46.464Z,100590.13
2019-04-11T10:42:18.224Z,100592.16
2019-04-11T10:45:07.345Z,100582.46
2019-04-11T10:47:39.089Z,100578.95
2019-04-11T10:50:21.851Z,100577.82
2019-04-11T10:52:56.153Z,100574.69
2019-04-11T10:55:53.722Z,100568.84
2019-04-11T10:58:33.040Z,100568.81
2019-04-11T11:01:26.792Z,100565.16
2019-04-11T11:04:09.883Z,100561.97
2019-04-11T11:06:44.923Z,100565.63
2019-04-11T11:09:32.234Z,100557.27
2019-04-11T11:12:15.023Z,100556.52
2019-04-11T11:15:11.762Z,100549.62
2019-04-11T11:18:35.191Z,100541.34
2019-04-11T11:21:00.633Z,100529.97
2019-04-11T11:23:49.361Z,100527.53
2019-04-11T11:26:28.006Z,100527.48
2019-04-11T11:29:18.911Z,100520.94
2019-04-11T11:31:56.470Z,100516.34
2019-04-11T11:34:49.245Z,100511.53
2019-04-11T11:37:35.580Z,100512.64
2019-04-11T11:40:32.561Z,100506.16
2019-04-11T11:43:14.743Z,100500.81
2019-04-11T11:46:04.155Z,100496.03
2019-04-11T11:48:40.301Z,100488.25
2019-04-11T11:51:31.028Z,100486.54
2019-04-11T11:54:07.330Z,100480.58
2019-04-11T11:56:42.464Z,100476.56
2019-04-11T11:59:18.252Z,100471.48
2019-04-11T12:01:57.306Z,100477.93
2019-04-11T12:04:46.621Z,100477.81
2019-04-11T12:07:21.071Z,100470.57
2019-04-11T12:10:11.405Z,100467.18
2019-04-11T12:13:20.156Z,100459.31
2019-04-11T12:16:03.957Z,100458.66
2019-04-11T12:18:54.978Z,100456.39
2019-04-11T12:21:31.467Z,100458.29
2019-04-11T12:24:29.523Z,100452.50
2019-04-11T12:27:20.555Z,100450.69
2019-04-11T12:30:23.376Z,100440.52
2019-04-11T12:33:03.648Z,100440.20
2019-04-11T12:35:52.821Z,100434.41
2019-04-11T12:38:49.619Z,100437.34
2019-04-11T12:41:46.051Z,100430.71
2019-04-11T12:44:45.675Z,100435.23
2019-04-11T12:47:45.265Z,100427.22
2019-04-11T12:50:48.440Z,100423.74
2019-04-11T12:53:22.310Z,100420.41
2019-04-11T12:56:16.096Z,100388.12
2019-04-11T12:58:53.692Z,100411.71
2019-04-11T13:01:45.527Z,100410.13
2019-04-11T13:04:21.015Z,100408.66
2019-04-11T13:07:12.037Z,100402.55
2019-04-11T13:10:12.467Z,100401.37
2019-04-11T13:13:21.240Z,100398.84
2019-04-11T13:16:11.831Z,100388.91
2019-04-11T13:19:03.537Z,100394.06
2019-04-11T13:22:06.601Z,100384.95
2019-04-11T13:25:06.008Z,100385.58
2019-04-11T13:27:47.376Z,100390.07
2019-04-11T13:30:53.236Z,100383.83
2019-04-11T13:33:27.040Z,100375.91
2019-04-11T13:36:18.246Z,100371.90
2019-04-11T13:38:51.648Z,100374.47
2019-04-11T13:42:00.451Z,100379.39
2019-04-11T13:44:35.743Z,100381.27
2019-04-11T13:47:25.015Z,100375.63
2019-04-11T13:49:59.431Z,100372.91
2019-04-11T13:52:50.045Z,100371.87
2019-04-11T13:55:26.603Z,100370.52
2019-04-11T13:58:17.160Z,100369.45
2019-04-11T14:00:52.657Z,100364.19
2019-04-11T14:03:43.237Z,100360.41
2019-04-11T14:06:19.823Z,100353.95
2019-04-11T14:09:14.969Z,100352.87
2019-04-11T14:11:48.561Z,100352.87
2019-04-11T14:14:41.935Z,100344.96
2019-04-11T14:17:32.475Z,100352.34
2019-04-11T14:20:35.208Z,100350.56
2019-04-11T14:23:26.898Z,100350.26
2019-04-11T14:26:37.583Z,100347.02
2019-04-11T14:29:18.096Z,100342.51
2019-04-11T14:31:56.111Z,100347.77
2019-04-11T14:34:46.677Z,100337.62
2019-04-11T14:37:37.802Z,100341.07
2019-04-11T14:40:13.873Z,100342.69
2019-04-11T14:43:04.434Z,100339.40
2019-04-11T14:46:00.387Z,100336.95
2019-04-11T14:48:40.735Z,100339.47
2019-04-11T14:51:49.582Z,100336.98
2019-04-11T14:54:27.740Z,100340.28
2019-04-11T14:57:06.600Z,100340.00
2019-04-11T14:59:42.022Z,100340.00
2019-04-11T15:02:35.177Z,100343.77
2019-04-11T15:05:13.826Z,100346.42
2019-04-11T15:07:46.752Z,100340.52
2019-04-11T15:10:49.775Z,100331.93
2019-04-11T15:13:25.045Z,100334.05
2019-04-11T15:16:14.328Z,100331.30
2019-04-11T15:18:52.682Z,100332.67
2019-04-11T15:21:43.327Z,100331.97
2019-04-11T15:24:16.198Z,100336.63
2019-04-11T15:27:18.970Z,100337.25
2019-04-11T15:29:50.714Z,100334.61
2019-04-11T15:32:36.517Z,100329.77
2019-04-11T15:35:13.376Z,100332.98
2019-04-11T15:38:02.148Z,100336.72
2019-04-11T15:40:39.497Z,100341.41
2019-04-11T15:43:30.081Z,100345.77
2019-04-11T15:46:04.643Z,100339.69
2019-04-11T15:48:57.986Z,100348.30
2019-04-11T15:51:35.754Z,100351.48
2019-04-11T15:54:26.357Z,100350.64
2019-04-11T15:57:19.701Z,100357.56
2019-04-11T16:00:28.320Z,100362.19
2019-04-11T16:03:06.237Z,100363.78
2019-04-11T16:06:02.113Z,100358.16
2019-04-11T16:08:47.293Z,100360.74
2019-04-11T16:11:52.970Z,100361.72
2019-04-11T16:14:43.647Z,100363.63
2019-04-11T16:17:36.123Z,100364.48
2019-04-11T16:20:20.115Z,100361.71
2019-04-11T16:23:10.673Z,100366.79
2019-04-11T16:25:48.561Z,100368.83
2019-04-11T16:28:38.886Z,100372.48
2019-04-11T16:31:13.553Z,100370.41
2019-04-11T16:34:15.788Z,100371.73
2019-04-11T16:36:52.657Z,100376.79
2019-04-11T16:39:49.968Z,100373.80
2019-04-11T16:42:44.786Z,100373.22
2019-04-11T16:45:33.319Z,100374.72
2019-04-11T16:48:05.044Z,100378.66
2019-04-11T16:50:36.778Z,100377.21
2019-04-11T16:53:11.487Z,100370.80
2019-04-11T16:55:43.339Z,100369.17
2019-04-11T16:58:19.230Z,100373.86
2019-04-11T17:00:52.060Z,100364.03
2019-04-11T17:03:24.820Z,100367.45
2019-04-11T17:06:06.198Z,100372.75
2019-04-11T17:08:45.915Z,100371.67
2019-04-11T17:11:19.836Z,100367.14
2019-04-11T17:13:56.988Z,100370.97
2019-04-11T17:16:30.121Z,100370.55
2019-04-11T17:19:00.146Z,100364.66
2019-04-11T17:21:42.789Z,100365.75
2019-04-11T17:24:08.117Z,100360.94
2019-04-11T17:26:39.844Z,100356.11
2019-04-11T17:29:12.876Z,100355.45
2019-04-11T17:31:44.636Z,100358.77
2019-04-11T17:34:16.376Z,100357.52
2019-04-11T17:36:48.117Z,100357.48
2019-04-11T17:39:19.856Z,100365.91
2019-04-11T17:41:51.577Z,100364.31
2019-04-11T17:44:23.311Z,100364.30
2019-04-11T17:46:56.757Z,100370.62
2019-04-11T17:49:28.530Z,100373.68
2019-04-11T17:52:00.251Z,100370.30
2019-04-11T17:54:32.060Z,100367.69
2019-04-11T17:57:03.790Z,100374.12
2019-04-11T17:59:35.507Z,100372.19
2019-04-11T18:02:10.333Z,100381.08
2019-04-11T18:04:45.723Z,100378.16
2019-04-11T18:07:17.628Z,100370.42
2019-04-11T18:09:56.650Z,100370.53
2019-04-11T18:12:30.710Z,100369.23
2019-04-11T18:15:04.460Z,100367.48
2019-04-11T18:17:38.103Z,100362.52
2019-04-11T18:20:09.912Z,100363.57
2019-04-11T18:22:45.789Z,100370.67
2019-04-11T18:25:15.114Z,100368.16
2019-04-11T18:27:46.853Z,100373.22
2019-04-11T18:30:20.890Z,100370.12
2019-04-11T18:32:52.984Z,100382.72
2019-04-11T18:35:24.807Z,100382.85
2019-04-11T18:37:56.550Z,100389.77
2019-04-11T18:40:30.378Z,100381.28
2019-04-11T18:43:02.101Z,100388.38
2019-04-11T18:45:35.834Z,100388.67
2019-04-11T18:48:07.603Z,100390.92
2019-04-11T18:50:39.369Z,100392.91
2019-04-11T18:53:12.206Z,100387.05
2019-04-11T18:55:44.070Z,100387.12
2019-04-11T18:58:15.827Z,100386.66
2019-04-11T19:00:47.616Z,100383.44
2019-04-11T19:03:19.673Z,100378.88
2019-04-11T19:05:51.779Z,100376.14
2019-04-11T19:08:23.650Z,100380.03
2019-04-11T19:10:55.425Z,100392.59
2019-04-11T19:13:28.020Z,100391.12
2019-04-11T19:15:59.795Z,100395.23
2019-04-11T19:18:32.006Z,100399.33
2019-04-11T19:21:03.808Z,100407.18
2019-04-11T19:23:36.725Z,100416.48
2019-04-11T19:26:09.090Z,100411.27
2019-04-11T19:28:40.917Z,100410.75
2019-04-11T19:31:12.654Z,100414.27
2019-04-11T19:33:47.350Z,100417.87
2019-04-11T19:36:19.093Z,100420.30
2019-04-11T19:38:50.940Z,100426.34
2019-04-11T19:41:22.697Z,100423.50
2019-04-11T19:43:54.779Z,100425.70
2019-04-11T19:46:26.520Z,100436.34
2019-04-11T19:48:59.482Z,100436.68
2019-04-11T19:51:31.366Z,100431.59
2019-04-11T19:54:03.888Z,100431.80
2019-04-11T19:56:48.999Z,100439.82
2019-04-11T19:59:20.753Z,100442.90
2019-04-11T20:01:53.200Z,100450.14
2019-04-11T20:04:25.744Z,100454.44
2019-04-11T20:07:00.872Z,100459.38
2019-04-11T20:09:32.653Z,100456.95
2019-04-11T20:12:04.389Z,100456.33
2019-04-11T20:14:37.757Z,100457.14
2019-04-11T20:17:09.493Z,100458.22
2019-04-11T20:19:41.699Z,100462.19
2019-04-11T20:22:13.518Z,100459.38
2019-04-11T20:24:46.924Z,100462.03
2019-04-11T20:27:20.390Z,100462.03
2019-04-11T20:29:55.299Z,100454.37
2019-04-11T20:32:25.795Z,100450.91
2019-04-11T20:34:57.547Z,100458.77
2019-04-11T20:37:39.027Z,100454.78
2019-04-11T20:40:04.592Z,100453.13
2019-04-11T20:42:36.377Z,100447.75
2019-04-11T20:45:10.439Z,100454.88
2019-04-11T20:47:43.836Z,100460.92
2019-04-11T20:50:15.674Z,100464.73
2019-04-11T20:52:48.974Z,100456.26
2019-04-11T20:55:21.306Z,100464.05
2019-04-11T20:57:55.505Z,100466.00
2019-04-11T21:00:29.753Z,100475.84
2019-04-11T21:03:01.532Z,100473.88
2019-04-11T21:05:38.366Z,100477.30
2019-04-11T21:08:10.148Z,100478.06
2019-04-11T21:10:41.970Z,100476.84
2019-04-11T21:13:14.119Z,100482.52
2019-04-11T21:15:45.882Z,100477.09
2019-04-11T21:18:17.620Z,100474.22
2019-04-11T21:20:49.934Z,100474.65
2019-04-11T21:23:24.596Z,100478.25
2019-04-11T21:25:58.868Z,100478.02
2019-04-11T21:28:30.278Z,100468.13
2019-04-11T21:31:02.343Z,100472.69
2019-04-11T21:33:35.014Z,100470.35
2019-04-11T21:36:08.069Z,100469.20
2019-04-11T21:38:39.827Z,100471.59
2019-04-11T21:41:11.576Z,100475.27
2019-04-11T21:43:43.398Z,100476.34
2019-04-11T21:46:16.966Z,100475.26
2019-04-11T21:48:48.687Z,100464.68
2019-04-11T21:51:20.531Z,100469.60
2019-04-11T21:53:54.043Z,100474.45
2019-04-11T21:56:28.967Z,100469.09
2019-04-11T21:59:01.123Z,100468.55
2019-04-11T22:01:32.950Z,100466.31
2019-04-11T22:04:04.857Z,100462.50
2019-04-11T22:06:36.901Z,100458.63
2019-04-11T22:09:09.155Z,100461.35
2019-04-11T22:11:41.192Z,100455.88
2019-04-11T22:14:14.004Z,100454.92
2019-04-11T22:16:45.758Z,100457.61
2019-04-11T22:19:17.516Z,100460.71
2019-04-11T22:21:49.363Z,100459.14
2019-04-11T22:24:21.153Z,100458.67
2019-04-11T22:26:53.678Z,100455.91
2019-04-11T22:29:25.644Z,100463.23
2019-04-11T22:31:57.545Z,100463.56
2019-04-11T22:34:56.778Z,100467.39
2019-04-11T22:37:30.127Z,100466.28
2019-04-11T22:40:03.915Z,100464.68
2019-04-11T22:42:35.669Z,100466.17
2019-04-11T22:45:08.499Z,100466.02
2019-04-11T22:47:40.828Z,100471.66
2019-04-11T22:50:14.300Z,100467.13
2019-04-11T22:52:46.323Z,100473.34
2019-04-11T22:55:18.065Z,100481.02
2019-04-11T22:57:49.849Z,100474.16
2019-04-11T23:00:22.756Z,100476.28
2019-04-11T23:03:01.297Z,100473.08
2019-04-11T23:05:33.152Z,100476.73
2019-04-11T23:08:05.042Z,100474.84
2019-04-11T23:10:39.457Z,100471.45
2019-04-11T23:13:11.250Z,100474.89
2019-04-11T23:15:44.415Z,100475.19
2019-04-11T23:18:17.936Z,100468.43
2019-04-11T23:20:49.728Z,100465.91
2019-04-11T23:23:22.175Z,100461.05
2019-04-11T23:25:53.974Z,100460.19
2019-04-11T23:28:25.817Z,100463.35
2019-04-11T23:30:57.689Z,100468.41
2019-04-11T23:33:29.475Z,100458.72
2019-04-11T23:36:01.297Z,100466.52
2019-04-11T23:38:33.072Z,100461.29
2019-04-11T23:41:05.377Z,100459.78
2019-04-11T23:43:37.170Z,100460.87
2019-04-11T23:46:09.139Z,100461.52
2019-04-11T23:48:40.879Z,100464.59
2019-04-11T23:51:12.663Z,100462.74
2019-04-11T23:53:44.413Z,100464.41
2019-04-11T23:56:16.182Z,100467.67
2019-04-11T23:58:47.915Z,100465.69
